createdAt,value
2022-11-29T00:00:33.468Z,5.38
2022-11-29T00:03:10.120Z,5.55
2022-11-29T00:05:48.857Z,6.85
2022-11-29T00:08:29.560Z,6.57
2022-11-29T00:11:16.575Z,5.72
2022-11-29T00:13:53.507Z,6.72
2022-11-29T00:16:25.314Z,6.63
2022-11-29T00:19:00.360Z,6.70
2022-11-29T00:21:39.269Z,8.00
2022-11-29T00:24:15.700Z,7.70
2022-11-29T00:26:56.384Z,6.95
2022-11-29T00:29:27.319Z,9.95
2022-11-29T00:31:57.244Z,8.68
2022-11-29T00:37:25.258Z,11.45
2022-11-29T00:40:02.035Z,9.80
2022-11-29T00:42:43.126Z,10.35
2022-11-29T00:45:16.551Z,10.10
2022-11-29T00:47:50.518Z,8.70
2022-11-29T00:53:00.517Z,9.20
2022-11-29T00:55:32.911Z,10.43
2022-11-29T00:58:08.076Z,11.32
2022-11-29T01:00:43.029Z,10.02
2022-11-29T01:03:17.933Z,10.98
2022-11-29T01:05:54.364Z,12.15
2022-11-29T01:08:35.321Z,10.75
2022-11-29T01:11:10.005Z,10.55
2022-11-29T01:13:48.583Z,9.82
2022-11-29T01:16:23.036Z,10.15
2022-11-29T01:18:52.074Z,11.00
2022-11-29T01:21:27.204Z,10.70
2022-11-29T01:24:03.660Z,10.02
2022-11-29T01:26:43.114Z,12.38
2022-11-29T01:29:22.987Z,10.13
2022-11-29T01:31:56.971Z,9.35
2022-11-29T01:34:30.834Z,11.13
2022-11-29T01:37:08.101Z,11.02
2022-11-29T01:39:57.565Z,11.45
2022-11-29T01:42:33.692Z,10.23
2022-11-29T01:45:20.122Z,10.02
2022-11-29T01:48:00.585Z,9.30
2022-11-29T01:50:39.143Z,9.05
2022-11-29T01:53:13.540Z,8.95
2022-11-29T01:55:53.847Z,9.30
2022-11-29T01:58:31.164Z,8.40
2022-11-29T02:01:02.758Z,7.85
2022-11-29T02:03:31.284Z,7.80
2022-11-29T02:06:11.825Z,7.80
2022-11-29T02:08:43.823Z,7.97
2022-11-29T02:11:44.752Z,7.50
2022-11-29T02:14:33.403Z,7.05
2022-11-29T02:17:12.396Z,7.68
2022-11-29T02:20:06.795Z,9.23
2022-11-29T02:22:47.347Z,7.22
2022-11-29T02:25:29.543Z,8.05
2022-11-29T02:28:42.775Z,7.95
2022-11-29T02:31:45.650Z,8.70
2022-11-29T02:34:56.807Z,12.13
2022-11-29T02:37:59.732Z,8.98
2022-11-29T02:40:57.424Z,8.18
2022-11-29T02:44:03.711Z,7.97
2022-11-29T02:46:56.258Z,7.88
2022-11-29T02:49:42.041Z,8.60
2022-11-29T02:52:20.622Z,7.20
2022-11-29T02:54:56.256Z,7.40
2022-11-29T02:57:37.166Z,8.23
2022-11-29T03:00:12.523Z,7.78
2022-11-29T03:02:55.570Z,7.60
2022-11-29T03:05:38.104Z,7.28
2022-11-29T03:08:15.131Z,7.47
2022-11-29T03:10:57.369Z,8.05
2022-11-29T03:13:44.497Z,7.30
2022-11-29T03:16:23.463Z,9.40
2022-11-29T03:19:05.482Z,9.77
2022-11-29T03:21:43.764Z,8.13
2022-11-29T03:24:23.196Z,8.07
2022-11-29T03:27:00.578Z,7.55
2022-11-29T03:29:40.434Z,8.38
2022-11-29T03:32:17.279Z,7.85
2022-11-29T03:34:59.917Z,7.97
2022-11-29T03:37:42.821Z,8.70
2022-11-29T03:40:18.895Z,9.57
2022-11-29T03:42:57.747Z,8.50
2022-11-29T03:45:38.198Z,9.32
2022-11-29T03:48:15.958Z,10.07
2022-11-29T03:50:57.012Z,8.73
2022-11-29T03:53:40.151Z,8.15
2022-11-29T03:56:32.569Z,9.27
2022-11-29T03:59:17.948Z,10.60
2022-11-29T04:02:30.362Z,10.23
2022-11-29T04:05:30.277Z,10.13
2022-11-29T04:08:32.521Z,10.70
2022-11-29T04:11:33.074Z,11.52
2022-11-29T04:14:38.591Z,11.90
2022-11-29T04:17:48.794Z,10.88
2022-11-29T04:20:55.956Z,10.95
2022-11-29T04:24:05.383Z,10.80
2022-11-29T04:27:09.300Z,12.65
2022-11-29T04:30:10.629Z,11.35
2022-11-29T04:33:21.589Z,10.07
2022-11-29T04:36:30.516Z,13.73
2022-11-29T04:39:38.810Z,12.32
2022-11-29T04:42:38.083Z,10.02
2022-11-29T04:46:02.353Z,10.85
2022-11-29T04:48:55.659Z,9.50
2022-11-29T04:51:43.203Z,9.68
2022-11-29T04:54:30.506Z,10.32
2022-11-29T04:57:07.337Z,9.88
2022-11-29T04:59:48.834Z,9.63
2022-11-29T05:02:37.666Z,9.50
2022-11-29T05:05:24.992Z,9.70
2022-11-29T05:08:18.023Z,8.23
2022-11-29T05:11:06.418Z,8.82
2022-11-29T05:13:55.512Z,8.68
2022-11-29T05:16:44.555Z,9.00
2022-11-29T05:19:43.631Z,9.18
2022-11-29T05:22:36.719Z,7.93
2022-11-29T05:25:33.636Z,7.82
2022-11-29T05:28:13.774Z,7.30
2022-11-29T05:31:20.665Z,7.72
2022-11-29T05:34:26.365Z,7.53
2022-11-29T05:37:13.128Z,7.65
2022-11-29T05:39:58.695Z,6.13
2022-11-29T05:42:52.811Z,6.35
2022-11-29T05:45:31.775Z,6.13
2022-11-29T05:48:05.889Z,5.95
2022-11-29T05:50:40.716Z,7.05
2022-11-29T05:55:54.053Z,5.20
2022-11-29T05:58:30.745Z,6.50
2022-11-29T06:01:18.711Z,6.38
2022-11-29T06:04:00.195Z,5.57
2022-11-29T06:06:40.366Z,5.90
2022-11-29T06:09:17.218Z,5.72
2022-11-29T06:11:49.738Z,5.35
2022-11-29T06:14:50.219Z,5.50
2022-11-29T06:17:43.145Z,5.38
2022-11-29T06:20:31.477Z,5.47
2022-11-29T06:23:23.726Z,5.18
2022-11-29T06:26:07.534Z,5.55
2022-11-29T06:28:50.559Z,5.00
2022-11-29T06:31:27.971Z,5.72
2022-11-29T06:34:11.496Z,5.63
2022-11-29T06:36:53.410Z,5.70
2022-11-29T06:39:26.526Z,4.85
2022-11-29T06:41:55.650Z,5.53
2022-11-29T06:44:25.839Z,4.80
2022-11-29T06:47:03.367Z,5.22
2022-11-29T06:49:38.191Z,4.70
2022-11-29T06:52:27.925Z,4.45
2022-11-29T06:55:10.253Z,4.32
2022-11-29T06:57:54.827Z,4.47
2022-11-29T07:00:26.946Z,4.72
2022-11-29T07:03:13.433Z,5.60
2022-11-29T07:05:44.143Z,4.60
2022-11-29T07:08:25.159Z,4.57
2022-11-29T07:11:03.057Z,4.45
2022-11-29T07:13:34.384Z,5.05
2022-11-29T07:16:11.225Z,5.18
2022-11-29T07:18:54.679Z,6.00
2022-11-29T07:21:47.956Z,5.55
2022-11-29T07:24:33.025Z,5.43
2022-11-29T07:27:12.765Z,5.22
2022-11-29T07:29:49.757Z,5.13
2022-11-29T07:32:28.526Z,5.18
2022-11-29T07:35:05.614Z,4.90
2022-11-29T07:37:45.914Z,5.03
2022-11-29T07:40:20.729Z,4.68
2022-11-29T07:43:08.190Z,4.82
2022-11-29T07:45:38.017Z,5.03
2022-11-29T07:48:07.194Z,4.97
2022-11-29T07:50:37.099Z,5.90
2022-11-29T07:53:18.159Z,4.70
2022-11-29T07:55:50.335Z,5.00
2022-11-29T07:58:22.075Z,5.25
2022-11-29T08:00:50.990Z,5.60
2022-11-29T08:03:24.621Z,5.20
2022-11-29T08:05:53.700Z,5.72
2022-11-29T08:08:25.591Z,5.70
2022-11-29T08:10:58.619Z,5.78
2022-11-29T08:13:29.355Z,6.15
2022-11-29T08:15:59.902Z,6.13
2022-11-29T08:18:29.798Z,7.07
2022-11-29T08:21:07.000Z,6.95
2022-11-29T08:23:36.167Z,6.85
2022-11-29T08:26:05.762Z,7.18
2022-11-29T08:28:35.981Z,6.95
2022-11-29T08:31:10.184Z,6.68
2022-11-29T08:33:44.932Z,6.40
2022-11-29T08:38:44.480Z,7.25
2022-11-29T08:41:16.322Z,6.68
2022-11-29T08:43:51.457Z,7.15
2022-11-29T08:46:21.202Z,6.70
2022-11-29T08:48:51.006Z,8.02
2022-11-29T08:51:20.345Z,6.90
2022-11-29T08:53:53.999Z,7.18
2022-11-29T08:57:16.498Z,7.22
2022-11-29T08:59:17.126Z,6.88
2022-11-29T09:01:46.789Z,7.25
2022-11-29T09:04:18.096Z,7.38
2022-11-29T09:06:49.870Z,9.20
2022-11-29T09:09:19.364Z,7.70
2022-11-29T09:11:49.754Z,8.15
2022-11-29T09:14:22.224Z,9.93
2022-11-29T09:16:50.965Z,9.43
2022-11-29T09:19:20.742Z,8.90
2022-11-29T09:21:50.555Z,7.75
2022-11-29T09:24:21.290Z,7.55
2022-11-29T09:26:49.852Z,8.57
2022-11-29T09:29:23.176Z,8.38
2022-11-29T09:31:53.237Z,8.63
2022-11-29T09:34:22.710Z,9.02
2022-11-29T09:36:52.320Z,9.02
2022-11-29T09:39:21.433Z,8.15
2022-11-29T09:42:10.262Z,11.13
2022-11-29T09:44:56.196Z,9.75
2022-11-29T09:47:39.576Z,10.10
2022-11-29T09:50:26.080Z,10.32
2022-11-29T09:53:07.570Z,11.20
2022-11-29T09:55:57.359Z,13.25
2022-11-29T09:58:30.465Z,10.50
2022-11-29T10:01:07.270Z,11.93
2022-11-29T10:03:47.305Z,12.82
2022-11-29T10:06:26.330Z,11.43
2022-11-29T10:09:01.297Z,9.65
2022-11-29T10:11:37.240Z,10.00
2022-11-29T10:14:16.229Z,10.38
2022-11-29T10:16:55.531Z,14.25
2022-11-29T10:19:33.276Z,13.18
2022-11-29T10:22:09.546Z,11.57
2022-11-29T10:24:42.880Z,10.40
2022-11-29T10:27:18.425Z,11.40
2022-11-29T10:29:51.376Z,13.52
2022-11-29T10:32:24.855Z,11.60
2022-11-29T10:34:57.566Z,12.45
2022-11-29T10:37:32.606Z,12.00
2022-11-29T10:40:05.557Z,10.55
2022-11-29T10:42:49.822Z,11.02
2022-11-29T10:45:33.191Z,9.98
2022-11-29T10:48:12.437Z,10.90
2022-11-29T10:50:44.719Z,10.43
2022-11-29T10:53:17.379Z,10.75
2022-11-29T10:55:51.937Z,11.45
2022-11-29T11:01:01.570Z,8.93
2022-11-29T11:03:37.465Z,9.65
2022-11-29T11:06:14.599Z,11.07
2022-11-29T11:08:47.455Z,10.98
2022-11-29T11:11:26.532Z,13.70
2022-11-29T11:14:03.751Z,13.25
2022-11-29T11:16:37.721Z,10.82
2022-11-29T11:19:27.916Z,12.55
2022-11-29T11:21:58.438Z,12.77
2022-11-29T11:24:31.724Z,13.55
2022-11-29T11:27:02.342Z,13.63
2022-11-29T11:29:37.349Z,13.32
2022-11-29T11:32:17.439Z,11.88
2022-11-29T11:34:54.861Z,13.15
2022-11-29T11:37:27.319Z,12.75
2022-11-29T11:39:58.081Z,12.85
2022-11-29T11:42:40.889Z,13.50
2022-11-29T11:45:31.407Z,12.60
2022-11-29T11:48:04.132Z,12.00
2022-11-29T11:50:45.245Z,10.85
2022-11-29T11:53:22.892Z,10.70
2022-11-29T11:55:59.463Z,10.10
2022-11-29T11:58:31.382Z,10.60
2022-11-29T12:01:06.099Z,10.43
2022-11-29T12:03:49.489Z,10.10
2022-11-29T12:06:43.246Z,10.48
2022-11-29T12:09:21.426Z,10.02
2022-11-29T12:12:04.641Z,9.70
2022-11-29T12:14:42.629Z,9.68
2022-11-29T12:17:21.521Z,11.00
2022-11-29T12:20:06.503Z,10.90
2022-11-29T12:25:23.811Z,9.38
2022-11-29T12:27:53.314Z,10.35
2022-11-29T12:30:22.755Z,16.27
2022-11-29T12:33:04.316Z,16.48
2022-11-29T12:35:46.820Z,13.52
2022-11-29T12:38:33.359Z,13.00
2022-11-29T12:41:13.060Z,12.45
2022-11-29T12:43:54.914Z,11.20
2022-11-29T12:46:26.712Z,12.25
2022-11-29T12:49:02.559Z,12.80
2022-11-29T12:51:45.820Z,11.52
2022-11-29T12:54:38.040Z,11.13
2022-11-29T12:57:16.374Z,11.07
2022-11-29T13:00:07.315Z,12.68
2022-11-29T13:02:48.644Z,11.95
2022-11-29T13:05:37.971Z,12.30
2022-11-29T13:08:30.128Z,12.90
2022-11-29T13:11:14.530Z,11.77
2022-11-29T13:13:46.637Z,12.73
2022-11-29T13:16:33.266Z,13.65
2022-11-29T13:19:12.479Z,15.55
2022-11-29T13:21:48.150Z,14.27
2022-11-29T13:24:25.016Z,13.30
2022-11-29T13:26:57.095Z,13.20
2022-11-29T13:29:28.225Z,12.88
2022-11-29T13:31:58.958Z,12.60
2022-11-29T13:34:33.453Z,12.30
2022-11-29T13:37:14.960Z,12.30
2022-11-29T13:39:58.266Z,14.75
2022-11-29T13:42:40.302Z,13.48
2022-11-29T13:45:22.739Z,12.57
2022-11-29T13:47:53.373Z,13.40
2022-11-29T13:50:41.045Z,11.85
2022-11-29T13:53:16.989Z,12.13
2022-11-29T13:55:48.763Z,11.88
2022-11-29T13:58:35.855Z,11.88
2022-11-29T14:01:09.919Z,13.30
2022-11-29T14:03:41.135Z,12.68
2022-11-29T14:06:22.208Z,12.55
2022-11-29T14:09:26.149Z,12.55
2022-11-29T14:12:02.704Z,11.38
2022-11-29T14:14:38.773Z,11.68
2022-11-29T14:17:33.918Z,12.52
2022-11-29T14:20:44.546Z,14.60
2022-11-29T14:23:28.160Z,14.60
2022-11-29T14:26:28.641Z,14.27
2022-11-29T14:29:00.311Z,13.40
2022-11-29T14:31:55.223Z,15.18
2022-11-29T14:34:51.345Z,13.52
2022-11-29T14:37:34.904Z,12.25
2022-11-29T14:40:17.019Z,12.82
2022-11-29T14:42:49.471Z,12.77
2022-11-29T14:45:31.164Z,12.35
2022-11-29T14:48:03.124Z,13.38
2022-11-29T14:50:37.325Z,13.25
2022-11-29T14:53:07.909Z,11.93
2022-11-29T14:55:38.846Z,12.73
2022-11-29T14:58:21.242Z,14.40
2022-11-29T15:01:10.407Z,13.35
2022-11-29T15:03:50.389Z,13.05
2022-11-29T15:06:26.264Z,12.45
2022-11-29T15:09:05.230Z,12.20
2022-11-29T15:11:57.792Z,12.07
2022-11-29T15:14:37.207Z,11.20
2022-11-29T15:17:20.981Z,11.27
2022-11-29T15:20:20.243Z,10.45
2022-11-29T15:22:54.284Z,10.50
2022-11-29T15:25:26.660Z,10.82
2022-11-29T15:27:58.221Z,10.27
2022-11-29T15:30:37.778Z,9.60
2022-11-29T15:33:24.353Z,9.57
2022-11-29T15:36:05.808Z,10.60
2022-11-29T15:38:45.599Z,10.10
2022-11-29T15:41:25.277Z,12.35
2022-11-29T15:44:00.490Z,10.00
2022-11-29T15:46:35.046Z,10.10
2022-11-29T15:49:17.168Z,10.40
2022-11-29T15:51:51.966Z,10.07
2022-11-29T15:57:04.116Z,11.18
2022-11-29T15:59:39.500Z,12.32
2022-11-29T16:02:17.825Z,11.60
2022-11-29T16:04:50.664Z,11.10
2022-11-29T16:07:24.501Z,11.20
2022-11-29T16:10:03.561Z,11.75
2022-11-29T16:12:35.940Z,12.45
2022-11-29T16:15:27.258Z,11.20
2022-11-29T16:17:58.763Z,10.38
2022-11-29T16:20:31.108Z,9.95
2022-11-29T16:23:16.921Z,9.05
2022-11-29T16:25:57.475Z,8.52
2022-11-29T16:28:37.604Z,9.43
2022-11-29T16:31:18.132Z,8.68
2022-11-29T16:34:22.856Z,9.15
2022-11-29T16:37:08.518Z,8.70
2022-11-29T16:39:43.986Z,7.93
2022-11-29T16:42:29.347Z,8.45
2022-11-29T16:45:29.934Z,8.55
2022-11-29T16:48:16.345Z,7.60
2022-11-29T16:51:09.258Z,8.73
2022-11-29T16:53:52.282Z,9.52
2022-11-29T16:56:31.735Z,8.18
2022-11-29T16:59:20.945Z,7.57
2022-11-29T17:02:02.576Z,7.82
2022-11-29T17:04:39.873Z,7.35
2022-11-29T17:07:16.212Z,8.50
2022-11-29T17:09:46.308Z,8.98
2022-11-29T17:12:20.073Z,8.05
2022-11-29T17:14:52.487Z,7.10
2022-11-29T17:17:24.275Z,7.63
2022-11-29T17:19:57.321Z,7.72
2022-11-29T17:22:30.980Z,7.47
2022-11-29T17:25:05.491Z,7.90
2022-11-29T17:27:42.975Z,6.97
2022-11-29T17:30:19.400Z,7.07
2022-11-29T17:32:57.305Z,8.30
2022-11-29T17:35:30.292Z,8.32
2022-11-29T17:38:05.893Z,7.55
2022-11-29T17:40:44.069Z,7.30
2022-11-29T17:43:23.410Z,6.63
2022-11-29T17:45:58.085Z,8.45
2022-11-29T17:48:35.770Z,7.40
2022-11-29T17:51:29.258Z,7.40
2022-11-29T17:54:11.158Z,7.35
2022-11-29T17:56:45.203Z,7.20
2022-11-29T17:59:16.407Z,6.75
2022-11-29T18:01:47.757Z,6.70
2022-11-29T18:04:25.050Z,6.30
2022-11-29T18:07:00.245Z,6.68
2022-11-29T18:09:35.268Z,6.00
2022-11-29T18:12:10.255Z,6.13
2022-11-29T18:14:47.845Z,6.32
2022-11-29T18:17:21.198Z,6.95
2022-11-29T18:20:00.324Z,6.63
2022-11-29T18:22:33.560Z,7.82
2022-11-29T18:25:37.060Z,7.45
2022-11-29T18:28:07.974Z,7.70
2022-11-29T18:33:22.184Z,7.45
2022-11-29T18:35:58.677Z,7.60
2022-11-29T18:38:31.915Z,6.32
2022-11-29T18:41:17.229Z,6.28
2022-11-29T18:43:49.541Z,6.80
2022-11-29T18:46:30.222Z,7.13
2022-11-29T18:49:15.135Z,6.63
2022-11-29T18:54:22.536Z,5.10
2022-11-29T18:56:59.109Z,6.05
2022-11-29T18:59:29.927Z,6.00
2022-11-29T19:02:09.379Z,6.07
2022-11-29T19:04:43.228Z,5.55
2022-11-29T19:07:17.947Z,5.43
2022-11-29T19:09:52.322Z,5.80
2022-11-29T19:12:23.708Z,5.55
2022-11-29T19:14:57.327Z,5.53
2022-11-29T19:17:30.654Z,6.00
2022-11-29T19:20:02.162Z,5.82
2022-11-29T19:22:36.763Z,6.50
2022-11-29T19:25:09.367Z,7.18
2022-11-29T19:27:43.951Z,7.07
2022-11-29T19:30:17.661Z,6.70
2022-11-29T19:32:52.869Z,6.88
2022-11-29T19:35:26.198Z,6.20
2022-11-29T19:37:58.815Z,7.70
2022-11-29T19:40:41.018Z,6.32
2022-11-29T19:43:13.019Z,6.90
2022-11-29T19:45:48.395Z,7.28
2022-11-29T19:48:21.914Z,6.47
2022-11-29T19:50:54.526Z,6.85
2022-11-29T19:53:30.750Z,9.10
2022-11-29T19:56:07.164Z,6.32
2022-11-29T19:58:45.363Z,8.88
2022-11-29T20:01:23.019Z,9.88
2022-11-29T20:04:06.652Z,7.80
2022-11-29T20:06:39.775Z,8.73
2022-11-29T20:09:17.374Z,7.72
2022-11-29T20:11:48.544Z,7.97
2022-11-29T20:14:20.539Z,9.18
2022-11-29T20:17:01.207Z,8.25
2022-11-29T20:19:38.926Z,8.52
2022-11-29T20:22:13.906Z,9.10
2022-11-29T20:24:47.235Z,10.52
2022-11-29T20:27:23.984Z,9.18
2022-11-29T20:29:55.195Z,8.88
2022-11-29T20:32:31.673Z,8.40
2022-11-29T20:35:06.998Z,8.43
2022-11-29T20:38:06.053Z,7.30
2022-11-29T20:40:49.956Z,11.48
2022-11-29T20:43:32.436Z,9.80
2022-11-29T20:46:06.850Z,10.15
2022-11-29T20:51:16.323Z,10.15
2022-11-29T20:53:50.931Z,9.73
2022-11-29T20:56:35.281Z,11.18
2022-11-29T20:59:16.995Z,10.55
2022-11-29T21:01:49.562Z,10.35
2022-11-29T21:04:27.096Z,9.57
2022-11-29T21:07:08.335Z,11.68
2022-11-29T21:09:41.074Z,10.30
2022-11-29T21:12:17.536Z,9.63
2022-11-29T21:14:52.726Z,9.63
2022-11-29T21:17:33.946Z,10.95
2022-11-29T21:20:07.719Z,12.10
2022-11-29T21:22:51.434Z,10.90
2022-11-29T21:25:31.232Z,9.93
2022-11-29T21:28:10.179Z,12.05
2022-11-29T21:30:45.476Z,13.68
2022-11-29T21:33:18.329Z,12.00
2022-11-29T21:35:54.052Z,12.15
2022-11-29T21:38:35.984Z,11.80
2022-11-29T21:41:08.277Z,11.63
2022-11-29T21:44:05.636Z,14.93
2022-11-29T21:46:38.558Z,12.18
2022-11-29T21:49:13.097Z,11.18
2022-11-29T21:51:45.645Z,13.65
2022-11-29T21:54:20.914Z,13.48
2022-11-29T21:56:52.865Z,15.13
2022-11-29T21:59:27.422Z,13.98
2022-11-29T22:02:02.563Z,14.63
2022-11-29T22:04:42.704Z,12.80
2022-11-29T22:07:19.753Z,13.40
2022-11-29T22:09:54.445Z,13.30
2022-11-29T22:12:34.135Z,13.13
2022-11-29T22:15:08.979Z,11.60
2022-11-29T22:17:52.211Z,11.07
2022-11-29T22:20:26.763Z,11.48
2022-11-29T22:23:00.456Z,11.48
2022-11-29T22:25:40.235Z,10.40
2022-11-29T22:28:13.477Z,9.88
2022-11-29T22:30:47.495Z,9.98
2022-11-29T22:33:23.544Z,9.43
2022-11-29T22:35:57.834Z,10.50
2022-11-29T22:38:34.034Z,9.18
2022-11-29T22:41:10.576Z,11.38
2022-11-29T22:43:45.864Z,10.43
2022-11-29T22:46:22.860Z,9.75
2022-11-29T22:48:56.811Z,9.73
2022-11-29T22:51:31.167Z,10.38
2022-11-29T22:54:07.085Z,9.65
2022-11-29T22:56:44.823Z,9.95
2022-11-29T22:59:17.314Z,11.23
2022-11-29T23:02:00.281Z,10.00
2022-11-29T23:04:33.438Z,9.63
2022-11-29T23:07:08.016Z,10.07
2022-11-29T23:12:20.344Z,11.15
2022-11-29T23:14:58.306Z,11.25
2022-11-29T23:17:32.750Z,10.90
2022-11-29T23:20:09.926Z,11.18
2022-11-29T23:22:42.877Z,10.75
2022-11-29T23:25:15.016Z,10.40
2022-11-29T23:27:53.593Z,11.70
2022-11-29T23:30:29.751Z,11.93
2022-11-29T23:33:08.855Z,11.02
2022-11-29T23:35:42.489Z,10.85
2022-11-29T23:38:19.016Z,10.40
2022-11-29T23:40:53.448Z,11.50
2022-11-29T23:43:36.559Z,11.45
2022-11-29T23:46:12.061Z,11.23
2022-11-29T23:48:50.365Z,11.77
2022-11-29T23:51:27.871Z,10.18
2022-11-29T23:54:05.832Z,11.77
2022-11-29T23:56:39.328Z,12.18
2022-11-29T23:59:23.779Z,12.23
